createdAt,value
2022-08-07T00:02:36.787Z,100655.56
2022-08-07T00:05:09.139Z,100645.81
2022-08-07T00:07:41.630Z,100655.94
2022-08-07T00:10:26.909Z,100658.84
2022-08-07T00:13:23.609Z,100670.09
2022-08-07T00:15:55.410Z,100656.78
2022-08-07T00:18:30.188Z,100682.94
2022-08-07T00:21:07.905Z,100623.81
2022-08-07T00:23:56.596Z,100680.66
2022-08-07T00:26:58.941Z,100689.56
2022-08-07T00:29:23.396Z,100694.16
2022-08-07T00:32:01.276Z,100696.44
2022-08-07T00:34:32.983Z,100693.72
2022-08-07T00:37:06.954Z,100690.41
2022-08-07T00:39:45.205Z,100682.47
2022-08-07T00:42:29.172Z,100689.97
2022-08-07T00:45:00.873Z,100695.16
2022-08-07T00:48:09.821Z,100692.47
2022-08-07T00:50:50.242Z,100686.91
2022-08-07T00:53:22.576Z,100711.59
2022-08-07T00:56:02.846Z,100710.53
2022-08-07T00:58:35.417Z,100677.19
2022-08-07T01:01:07.523Z,100716.19
2022-08-07T01:03:56.055Z,100724.06
2022-08-07T01:06:32.731Z,100726.75
2022-08-07T01:09:05.488Z,100731.16
2022-08-07T01:12:09.180Z,100725.75
2022-08-07T01:14:32.788Z,100734.66
2022-08-07T01:17:08.656Z,100730.97
2022-08-07T01:19:42.048Z,100729.91
2022-08-07T01:22:29.326Z,100723.47
2022-08-07T01:25:05.186Z,100713.28
2022-08-07T01:27:54.847Z,100717.22
2022-08-07T01:30:27.757Z,100707.16
2022-08-07T01:33:02.328Z,100707.69
2022-08-07T01:35:52.916Z,100706.38
2022-08-07T01:38:31.661Z,100711.78
2022-08-07T01:41:12.651Z,100711.59
2022-08-07T01:43:59.495Z,100721.59
2022-08-07T01:46:38.040Z,100728.25
2022-08-07T01:49:14.252Z,100738.63
2022-08-07T01:52:01.729Z,100737.00
2022-08-07T01:54:39.291Z,100729.91
2022-08-07T01:57:25.586Z,100670.63
2022-08-07T02:00:13.031Z,100635.03
2022-08-07T02:03:11.902Z,100738.63
2022-08-07T02:06:08.834Z,100667.31
2022-08-07T02:08:57.519Z,100665.59
2022-08-07T02:12:04.089Z,100726.16
2022-08-07T02:14:40.571Z,100735.31
2022-08-07T02:17:27.767Z,100714.56
2022-08-07T02:20:17.201Z,100682.41
2022-08-07T02:22:55.106Z,100666.44
2022-08-07T02:25:47.225Z,100729.69
2022-08-07T02:28:24.724Z,100737.00
2022-08-07T02:31:18.979Z,100730.53
2022-08-07T02:34:03.612Z,100681.38
2022-08-07T02:36:43.286Z,100734.47
2022-08-07T02:39:43.362Z,100727.38
2022-08-07T02:42:16.856Z,100727.63
2022-08-07T02:44:53.153Z,100674.28
2022-08-07T02:47:27.972Z,100715.31
2022-08-07T02:50:16.353Z,100718.00
2022-08-07T02:53:03.478Z,100716.13
2022-08-07T02:56:03.309Z,100702.44
2022-08-07T02:58:33.776Z,100707.00
2022-08-07T03:01:16.040Z,100716.53
2022-08-07T03:03:52.055Z,100717.38
2022-08-07T03:06:34.613Z,100720.66
2022-08-07T03:09:12.320Z,100703.03
2022-08-07T03:11:51.645Z,100720.47
2022-08-07T03:14:33.974Z,100717.94
2022-08-07T03:17:08.771Z,100724.38
2022-08-07T03:19:42.419Z,100716.50
2022-08-07T03:22:29.711Z,100675.44
2022-08-07T03:25:03.794Z,100720.19
2022-08-07T03:27:59.235Z,100640.56
2022-08-07T03:30:33.945Z,100719.31
2022-08-07T03:33:08.583Z,100691.88
2022-08-07T03:35:50.196Z,100709.50
2022-08-07T03:38:29.740Z,100709.50
2022-08-07T03:41:10.382Z,100684.16
2022-08-07T03:43:56.870Z,100705.94
2022-08-07T03:46:34.878Z,100700.53
2022-08-07T03:49:07.392Z,100697.38
2022-08-07T03:51:47.057Z,100699.66
2022-08-07T03:54:35.896Z,100693.81
2022-08-07T03:58:32.706Z,100692.53
2022-08-07T04:00:08.910Z,100688.53
2022-08-07T04:02:51.940Z,100682.09
2022-08-07T04:05:39.322Z,100674.59
2022-08-07T04:08:18.621Z,100617.63
2022-08-07T04:12:20.882Z,100660.06
2022-08-07T04:13:49.628Z,100673.69
2022-08-07T04:16:43.093Z,100663.47
2022-08-07T04:19:51.023Z,100658.66
2022-08-07T04:22:29.511Z,100600.25
2022-08-07T04:25:12.114Z,100654.28
2022-08-07T04:27:59.108Z,100641.75
2022-08-07T04:30:39.587Z,100618.94
2022-08-07T04:33:27.847Z,100557.38
2022-08-07T04:36:00.763Z,100621.06
2022-08-07T04:38:40.099Z,100623.16
2022-08-07T04:41:18.071Z,100633.72
2022-08-07T04:44:09.811Z,100609.31
2022-08-07T04:47:03.947Z,100539.25
2022-08-07T04:50:03.809Z,100610.66
2022-08-07T04:52:52.212Z,100619.50
2022-08-07T04:58:07.680Z,100527.91
2022-08-07T04:59:18.407Z,100597.94
2022-08-07T05:02:05.035Z,100536.56
2022-08-07T05:04:50.340Z,100609.28
2022-08-07T05:07:51.707Z,100470.13
2022-08-07T05:11:02.326Z,100601.88
2022-08-07T05:14:53.338Z,100605.03
2022-08-07T05:16:35.045Z,100465.25
2022-08-07T05:19:19.267Z,100469.81
2022-08-07T05:22:04.563Z,100529.69
2022-08-07T05:24:43.043Z,100558.63
2022-08-07T05:28:02.574Z,100499.19
2022-08-07T05:30:12.474Z,100556.53
2022-08-07T05:32:48.446Z,100556.97
2022-08-07T05:35:33.038Z,100555.50
2022-08-07T05:38:09.649Z,100463.09
2022-08-07T05:40:50.378Z,100546.78
2022-08-07T05:43:49.797Z,100533.25
2022-08-07T05:46:19.090Z,100446.72
2022-08-07T05:48:59.163Z,100466.13
2022-08-07T05:51:39.971Z,100507.94
2022-08-07T05:54:30.251Z,100505.44
2022-08-07T05:57:08.152Z,100506.28
2022-08-07T05:59:55.968Z,100431.50
2022-08-07T06:02:35.165Z,100418.28
2022-08-07T06:05:15.753Z,100474.56
2022-08-07T06:08:14.391Z,100482.19
2022-08-07T06:10:46.241Z,100469.13
2022-08-07T06:14:10.548Z,100466.63
2022-08-07T06:16:16.916Z,100450.31
2022-08-07T06:18:51.945Z,100463.72
2022-08-07T06:22:15.473Z,100444.84
2022-08-07T06:24:38.342Z,100449.59
2022-08-07T06:27:13.035Z,100440.88
2022-08-07T06:30:04.740Z,100437.97
2022-08-07T06:32:36.551Z,100434.00
2022-08-07T06:35:17.964Z,100432.34
2022-08-07T06:37:52.836Z,100418.06
2022-08-07T06:40:24.584Z,100426.50
2022-08-07T06:42:57.448Z,100419.69
2022-08-07T06:45:44.305Z,100404.50
2022-08-07T06:48:25.303Z,100397.66
2022-08-07T06:51:08.163Z,100400.97
2022-08-07T06:55:29.815Z,100325.66
2022-08-07T06:56:49.500Z,100357.88
2022-08-07T07:00:12.994Z,100407.03
2022-08-07T07:02:54.371Z,100397.72
2022-08-07T07:06:03.199Z,100270.72
2022-08-07T07:08:18.801Z,100389.09
2022-08-07T07:10:57.866Z,100394.56
2022-08-07T07:13:58.278Z,100328.00
2022-08-07T07:16:45.121Z,100401.78
2022-08-07T07:19:55.612Z,100382.94
2022-08-07T07:22:36.300Z,100373.66
2022-08-07T07:26:32.120Z,100363.13
2022-08-07T07:28:48.303Z,100376.56
2022-08-07T07:31:22.821Z,100371.31
2022-08-07T07:34:01.402Z,100360.34
2022-08-07T07:36:33.923Z,100364.88
2022-08-07T07:39:07.625Z,100301.19
2022-08-07T07:41:50.797Z,100345.03
2022-08-07T07:44:35.194Z,100290.06
2022-08-07T07:47:15.706Z,100265.31
2022-08-07T07:50:33.944Z,100354.88
2022-08-07T07:52:49.019Z,100341.59
2022-08-07T07:55:21.231Z,100363.03
2022-08-07T07:57:58.358Z,100361.66
2022-08-07T08:00:34.144Z,100350.66
2022-08-07T08:03:16.669Z,100291.16
2022-08-07T08:05:54.074Z,100352.75
2022-08-07T08:08:35.471Z,100356.06
2022-08-07T08:11:16.255Z,100345.69
2022-08-07T08:13:54.729Z,100331.84
2022-08-07T08:16:57.301Z,100342.22
2022-08-07T08:20:19.429Z,100341.31
2022-08-07T08:23:03.227Z,100328.38
2022-08-07T08:25:56.526Z,100271.03
2022-08-07T08:28:37.637Z,100260.94
2022-08-07T08:31:15.970Z,100340.09
2022-08-07T08:33:55.908Z,100337.44
2022-08-07T08:36:34.555Z,100265.56
2022-08-07T08:39:07.773Z,100322.38
2022-08-07T08:42:05.825Z,100343.28
2022-08-07T08:44:53.346Z,100346.84
2022-08-07T08:47:34.453Z,100336.94
2022-08-07T08:50:38.845Z,100274.53
2022-08-07T08:53:21.243Z,100339.69
2022-08-07T08:56:08.791Z,100258.38
2022-08-07T08:59:17.461Z,100321.75
2022-08-07T09:02:10.523Z,100273.69
2022-08-07T09:05:14.797Z,100343.38
2022-08-07T09:07:59.551Z,100345.25
2022-08-07T09:10:46.300Z,100339.84
2022-08-07T09:13:37.132Z,100338.28
2022-08-07T09:16:21.901Z,100281.31
2022-08-07T09:18:58.759Z,100345.22
2022-08-07T09:24:28.321Z,100350.06
2022-08-07T09:25:27.954Z,100356.53
2022-08-07T09:28:02.974Z,100362.50
2022-08-07T09:31:03.139Z,100363.16
2022-08-07T09:33:57.287Z,100359.09
2022-08-07T09:37:01.929Z,100280.78
2022-08-07T09:39:53.988Z,100361.31
2022-08-07T09:42:50.326Z,100361.31
2022-08-07T09:47:25.882Z,100361.22
2022-08-07T09:50:01.909Z,100358.44
2022-08-07T09:52:33.738Z,100361.63
2022-08-07T09:55:17.034Z,100368.47
2022-08-07T09:58:32.214Z,100307.44
2022-08-07T10:01:50.637Z,100366.84
2022-08-07T10:04:58.474Z,100369.44
2022-08-07T10:07:53.576Z,100373.41
2022-08-07T10:11:16.522Z,100364.91
2022-08-07T10:14:11.274Z,100339.78
2022-08-07T10:17:03.717Z,100385.41
2022-08-07T10:19:57.028Z,100392.19
2022-08-07T10:22:33.767Z,100385.94
2022-08-07T10:25:42.536Z,100390.69
2022-08-07T10:28:49.376Z,100401.88
2022-08-07T10:32:36.396Z,100335.22
2022-08-07T10:35:55.461Z,100412.06
2022-08-07T10:38:48.868Z,100428.69
2022-08-07T10:41:54.666Z,100430.06
2022-08-07T10:44:55.777Z,100434.69
2022-08-07T10:47:53.241Z,100451.09
2022-08-07T10:50:52.118Z,100384.97
2022-08-07T10:54:00.032Z,100381.56
2022-08-07T10:56:49.814Z,100446.72
2022-08-07T10:59:30.418Z,100441.53
2022-08-07T11:02:38.118Z,100460.56
2022-08-07T11:05:35.684Z,100459.66
2022-08-07T11:08:53.436Z,100467.06
2022-08-07T11:11:59.334Z,100474.63
2022-08-07T11:14:57.329Z,100357.31
2022-08-07T11:17:48.562Z,100476.16
2022-08-07T11:20:22.594Z,100472.16
2022-08-07T11:23:07.214Z,100414.38
2022-08-07T11:26:07.919Z,100475.34
2022-08-07T11:28:55.675Z,100464.28
2022-08-07T11:32:11.825Z,100481.00
2022-08-07T11:34:58.183Z,100478.63
2022-08-07T11:38:12.933Z,100490.31
2022-08-07T11:40:54.143Z,100486.53
2022-08-07T11:43:55.022Z,100480.06
2022-08-07T11:46:57.517Z,100495.75
2022-08-07T11:50:31.228Z,100430.19
2022-08-07T11:53:22.053Z,100506.59
2022-08-07T11:56:26.918Z,100510.00
2022-08-07T12:00:08.034Z,100511.66
2022-08-07T12:02:33.431Z,100520.75
2022-08-07T12:05:47.503Z,100439.63
2022-08-07T12:08:36.903Z,100467.44
2022-08-07T12:11:21.280Z,100526.66
2022-08-07T12:14:13.220Z,100533.59
2022-08-07T12:17:19.882Z,100533.44
2022-08-07T12:20:29.746Z,100532.50
2022-08-07T12:24:05.479Z,100540.75
2022-08-07T12:27:14.971Z,100543.69
2022-08-07T12:30:04.459Z,100526.72
2022-08-07T12:32:54.289Z,100547.81
2022-08-07T12:35:29.283Z,100569.63
2022-08-07T12:38:16.117Z,100565.72
2022-08-07T12:41:04.858Z,100515.03
2022-08-07T12:44:02.572Z,100582.00
2022-08-07T12:46:57.460Z,100599.19
2022-08-07T12:50:39.649Z,100605.06
2022-08-07T12:53:18.106Z,100592.06
2022-08-07T12:56:09.282Z,100555.91
2022-08-07T12:58:46.778Z,100628.94
2022-08-07T13:02:00.031Z,100627.50
2022-08-07T13:05:01.217Z,100635.03
2022-08-07T13:08:13.771Z,100632.06
2022-08-07T13:11:21.567Z,100629.34
2022-08-07T13:14:20.744Z,100633.72
2022-08-07T13:17:06.483Z,100621.59
2022-08-07T13:19:50.538Z,100639.38
2022-08-07T13:22:34.091Z,100639.38
2022-08-07T13:25:15.171Z,100637.59
2022-08-07T13:28:10.646Z,100633.09
2022-08-07T13:30:53.184Z,100659.75
2022-08-07T13:34:30.293Z,100669.53
2022-08-07T13:36:56.469Z,100622.31
2022-08-07T13:40:34.346Z,100660.91
2022-08-07T13:42:30.206Z,100665.44
2022-08-07T13:46:06.684Z,100610.06
2022-08-07T13:48:05.282Z,100675.22
2022-08-07T13:50:45.295Z,100659.53
2022-08-07T13:54:00.874Z,100677.34
2022-08-07T13:56:41.234Z,100612.47
2022-08-07T13:59:31.832Z,100628.31
2022-08-07T14:02:13.878Z,100695.72
2022-08-07T14:04:51.612Z,100696.59
2022-08-07T14:07:33.675Z,100675.91
2022-08-07T14:10:20.503Z,100710.56
2022-08-07T14:13:01.756Z,100591.31
2022-08-07T14:15:50.471Z,100701.59
2022-08-07T14:18:57.149Z,100647.69
2022-08-07T14:22:04.283Z,100720.53
2022-08-07T14:24:47.540Z,100725.72
2022-08-07T14:28:11.659Z,100653.19
2022-08-07T14:30:32.411Z,100730.34
2022-08-07T14:33:06.848Z,100723.72
2022-08-07T14:35:45.541Z,100728.31
2022-08-07T14:38:34.663Z,100670.88
2022-08-07T14:41:15.062Z,100607.84
2022-08-07T14:43:58.700Z,100721.69
2022-08-07T14:46:56.473Z,100657.44
2022-08-07T14:49:58.416Z,100723.38
2022-08-07T14:52:29.216Z,100730.03
2022-08-07T14:55:02.967Z,100735.44
2022-08-07T14:57:58.069Z,100733.16
2022-08-07T15:00:37.133Z,100726.31
2022-08-07T15:03:16.618Z,100741.50
2022-08-07T15:05:55.242Z,100741.31
2022-08-07T15:08:54.565Z,100738.59
2022-08-07T15:14:30.549Z,100750.88
2022-08-07T15:17:23.491Z,100737.44
2022-08-07T15:20:31.501Z,100702.34
2022-08-07T15:22:57.311Z,100725.75
2022-08-07T15:25:36.963Z,100669.75
2022-08-07T15:28:34.585Z,100710.66
2022-08-07T15:31:06.796Z,100662.28
2022-08-07T15:33:42.781Z,100662.50
2022-08-07T15:37:02.738Z,100734.50
2022-08-07T15:39:10.676Z,100661.28
2022-08-07T15:44:57.878Z,100732.84
2022-08-07T15:47:42.797Z,100740.34
2022-08-07T15:53:51.761Z,100622.50
2022-08-07T15:56:37.638Z,100660.00
2022-08-07T15:59:18.529Z,100657.03
2022-08-07T16:02:01.669Z,100722.78
2022-08-07T16:04:36.945Z,100591.50
2022-08-07T16:08:33.393Z,100652.06
2022-08-07T16:10:19.458Z,100728.59
2022-08-07T16:13:57.469Z,100715.69
2022-08-07T16:16:48.037Z,100632.97
2022-08-07T16:19:58.774Z,100647.94
2022-08-07T16:23:05.253Z,100705.94
2022-08-07T16:26:02.697Z,100715.72
2022-08-07T16:30:05.973Z,100701.22
2022-08-07T16:32:35.351Z,100582.19
2022-08-07T16:35:56.925Z,100710.53
2022-08-07T16:39:01.549Z,100705.63
2022-08-07T16:42:26.267Z,100701.94
2022-08-07T16:45:15.190Z,100693.78
2022-08-07T16:48:27.723Z,100693.59
2022-08-07T16:52:01.704Z,100674.09
2022-08-07T16:54:33.016Z,100675.72
2022-08-07T16:57:28.818Z,100668.22
2022-08-07T17:00:29.772Z,100664.91
2022-08-07T17:03:19.201Z,100666.81
2022-08-07T17:06:44.861Z,100660.16
2022-08-07T17:10:06.724Z,100597.75
2022-08-07T17:12:46.219Z,100634.22
2022-08-07T17:15:21.271Z,100652.06
2022-08-07T17:18:14.392Z,100588.22
2022-08-07T17:20:47.515Z,100649.34
2022-08-07T17:23:32.583Z,100657.69
2022-08-07T17:26:22.648Z,100654.56
2022-08-07T17:29:04.576Z,100653.31
2022-08-07T17:32:03.371Z,100647.13
2022-08-07T17:35:40.603Z,100650.41
2022-08-07T17:38:32.035Z,100646.72
2022-08-07T17:42:01.962Z,100643.78
2022-08-07T17:44:50.198Z,100626.38
2022-08-07T17:47:42.856Z,100573.94
2022-08-07T17:50:30.161Z,100638.41
2022-08-07T17:54:01.120Z,100562.72
2022-08-07T17:56:49.845Z,100629.28
2022-08-07T17:59:35.993Z,100603.56
2022-08-07T18:02:27.200Z,100551.09
2022-08-07T18:05:21.356Z,100544.28
2022-08-07T18:08:15.511Z,100606.47
2022-08-07T18:12:07.107Z,100602.72
2022-08-07T18:13:51.906Z,100556.69
2022-08-07T18:16:57.995Z,100590.72
2022-08-07T18:21:11.697Z,100601.53
2022-08-07T18:22:57.388Z,100599.41
2022-08-07T18:25:39.400Z,100592.16
2022-08-07T18:28:58.327Z,100526.25
2022-08-07T18:31:51.158Z,100592.63
2022-08-07T18:35:01.926Z,100583.25
2022-08-07T18:38:56.012Z,100584.53
2022-08-07T18:41:44.729Z,100586.19
2022-08-07T18:45:44.736Z,100590.13
2022-08-07T18:48:07.454Z,100574.53
2022-08-07T18:51:14.936Z,100551.13
2022-08-07T18:54:30.468Z,100577.47
2022-08-07T18:57:36.813Z,100512.38
2022-08-07T19:00:33.546Z,100580.78
2022-08-07T19:03:17.884Z,100568.75
2022-08-07T19:06:05.487Z,100550.69
2022-08-07T19:09:00.257Z,100584.09
2022-08-07T19:12:05.469Z,100575.81
2022-08-07T19:15:00.804Z,100579.75
2022-08-07T19:18:11.287Z,100574.16
2022-08-07T19:21:44.973Z,100579.53
2022-08-07T19:24:11.987Z,100565.25
2022-08-07T19:28:30.496Z,100519.84
2022-08-07T19:30:57.666Z,100560.25
2022-08-07T19:33:00.257Z,100572.25
2022-08-07T19:35:35.087Z,100573.94
2022-08-07T19:38:16.957Z,100517.78
2022-08-07T19:40:51.691Z,100528.94
2022-08-07T19:43:50.052Z,100523.97
2022-08-07T19:46:29.169Z,100556.09
2022-08-07T19:49:57.521Z,100575.22
2022-08-07T19:52:18.405Z,100572.91
2022-08-07T19:54:56.376Z,100494.13
2022-08-07T19:58:01.398Z,100562.34
2022-08-07T20:00:36.281Z,100563.97
2022-08-07T20:03:33.492Z,100489.81
2022-08-07T20:06:15.612Z,100539.72
2022-08-07T20:09:03.471Z,100494.13
2022-08-07T20:12:22.879Z,100560.03
2022-08-07T20:14:54.033Z,100503.25
2022-08-07T20:17:38.644Z,100503.66
2022-08-07T20:20:12.040Z,100551.34
2022-08-07T20:22:48.734Z,100560.47
2022-08-07T20:25:21.224Z,100550.53
2022-08-07T20:27:58.545Z,100532.28
2022-08-07T20:30:37.815Z,100539.94
2022-08-07T20:33:36.545Z,100454.75
2022-08-07T20:36:08.947Z,100453.69
2022-08-07T20:38:53.793Z,100533.91
2022-08-07T20:41:38.346Z,100539.09
2022-08-07T20:44:13.433Z,100530.78
2022-08-07T20:46:48.311Z,100457.66
2022-08-07T20:49:59.820Z,100489.38
2022-08-07T20:52:51.196Z,100503.25
2022-08-07T20:55:25.922Z,100486.25
2022-08-07T20:58:11.915Z,100520.44
2022-08-07T21:00:58.033Z,100522.31
2022-08-07T21:03:31.999Z,100532.25
2022-08-07T21:06:21.678Z,100532.47
2022-08-07T21:09:13.703Z,100526.47
2022-08-07T21:11:51.151Z,100527.28
2022-08-07T21:14:34.802Z,100471.75
2022-08-07T21:18:03.444Z,100522.75
2022-08-07T21:20:09.963Z,100468.03
2022-08-07T21:22:51.301Z,100540.56
2022-08-07T21:25:44.655Z,100493.75
2022-08-07T21:28:48.654Z,100534.34
2022-08-07T21:32:10.929Z,100533.53
2022-08-07T21:35:08.063Z,100540.19
2022-08-07T21:38:03.948Z,100537.66
2022-08-07T21:41:01.529Z,100495.38
2022-08-07T21:43:59.092Z,100575.03
2022-08-07T21:46:51.742Z,100580.81
2022-08-07T21:50:02.164Z,100585.81
2022-08-07T21:52:44.176Z,100578.13
2022-08-07T21:55:29.940Z,100583.94
2022-08-07T21:58:22.169Z,100569.19
2022-08-07T22:01:13.930Z,100598.22
2022-08-07T22:03:58.861Z,100488.94
2022-08-07T22:06:44.974Z,100539.34
2022-08-07T22:09:26.964Z,100462.63
2022-08-07T22:12:11.280Z,100532.72
2022-08-07T22:16:42.712Z,100543.09
2022-08-07T22:18:35.820Z,100474.22
2022-08-07T22:21:24.021Z,100542.22
2022-08-07T22:24:22.151Z,100557.19
2022-08-07T22:27:16.013Z,100554.50
2022-08-07T22:29:54.185Z,100558.59
2022-08-07T22:32:42.481Z,100548.00
2022-08-07T22:35:15.835Z,100537.44
2022-08-07T22:38:03.455Z,100553.44
2022-08-07T22:40:46.961Z,100556.56
2022-08-07T22:43:31.478Z,100558.63
2022-08-07T22:47:02.190Z,100540.97
2022-08-07T22:49:55.066Z,100553.00
2022-08-07T22:53:07.807Z,100562.13
2022-08-07T22:56:05.153Z,100566.28
2022-08-07T22:59:04.950Z,100567.91
2022-08-07T23:02:06.351Z,100501.72
2022-08-07T23:06:07.066Z,100495.28
2022-08-07T23:08:30.665Z,100570.41
2022-08-07T23:11:41.304Z,100563.59
2022-08-07T23:14:50.060Z,100507.78
2022-08-07T23:17:41.583Z,100454.75
2022-08-07T23:20:51.472Z,100575.41
2022-08-07T23:24:06.251Z,100581.63
2022-08-07T23:27:03.778Z,100577.47
2022-08-07T23:30:35.419Z,100581.00
2022-08-07T23:34:20.708Z,100584.91
2022-08-07T23:35:45.602Z,100581.22
2022-08-07T23:38:42.246Z,100599.88
2022-08-07T23:42:01.677Z,100594.44
2022-08-07T23:45:15.294Z,100600.25
2022-08-07T23:48:05.263Z,100518.09
2022-08-07T23:53:00.536Z,100593.16
2022-08-07T23:54:36.040Z,100605.13
2022-08-07T23:57:30.378Z,100610.28
